sensor_id;sensor_type;location;lat;lon;timestamp;temperature;humidity
37594;DHT22;23441;50.856;6.076;2022-10-18T00:01:14;15.30;99.90
37594;DHT22;23441;50.856;6.076;2022-10-18T00:03:40;15.30;99.90
37594;DHT22;23441;50.856;6.076;2022-10-18T00:06:06;15.30;99.90
37594;DHT22;23441;50.856;6.076;2022-10-18T00:08:35;15.30;99.90
37594;DHT22;23441;50.856;6.076;2022-10-18T00:11:01;15.30;99.90
37594;DHT22;23441;50.856;6.076;2022-10-18T00:13:27;15.30;99.90
37594;DHT22;23441;50.856;6.076;2022-10-18T00:15:55;15.30;99.90
37594;DHT22;23441;50.856;6.076;2022-10-18T00:18:22;15.30;99.90
37594;DHT22;23441;50.856;6.076;2022-10-18T00:20:58;15.30;99.90
37594;DHT22;23441;50.856;6.076;2022-10-18T00:23:24;15.30;99.90
37594;DHT22;23441;50.856;6.076;2022-10-18T00:25:58;15.30;99.90
37594;DHT22;23441;50.856;6.076;2022-10-18T00:28:24;15.30;99.90
37594;DHT22;23441;50.856;6.076;2022-10-18T00:30:50;15.30;99.90
37594;DHT22;23441;50.856;6.076;2022-10-18T00:33:16;15.20;99.90
37594;DHT22;23441;50.856;6.076;2022-10-18T00:35:41;15.30;99.90
37594;DHT22;23441;50.856;6.076;2022-10-18T00:38:07;15.30;99.90
37594;DHT22;23441;50.856;6.076;2022-10-18T00:40:33;15.30;99.90
37594;DHT22;23441;50.856;6.076;2022-10-18T00:42:58;15.30;99.90
37594;DHT22;23441;50.856;6.076;2022-10-18T00:45:25;15.30;99.90
37594;DHT22;23441;50.856;6.076;2022-10-18T00:47:55;15.20;99.90
37594;DHT22;23441;50.856;6.076;2022-10-18T00:50:23;15.20;99.90
37594;DHT22;23441;50.856;6.076;2022-10-18T00:52:54;15.20;99.90
37594;DHT22;23441;50.856;6.076;2022-10-18T00:55:21;15.20;99.90
37594;DHT22;23441;50.856;6.076;2022-10-18T00:57:47;15.20;99.90
37594;DHT22;23441;50.856;6.076;2022-10-18T01:00:14;15.20;99.90
37594;DHT22;23441;50.856;6.076;2022-10-18T01:02:42;15.20;99.90
37594;DHT22;23441;50.856;6.076;2022-10-18T01:05:11;15.20;99.90
37594;DHT22;23441;50.856;6.076;2022-10-18T01:07:54;15.20;99.90
37594;DHT22;23441;50.856;6.076;2022-10-18T01:11:14;15.20;99.90
37594;DHT22;23441;50.856;6.076;2022-10-18T01:13:34;15.20;99.90
37594;DHT22;23441;50.856;6.076;2022-10-18T01:16:08;15.20;99.90
37594;DHT22;23441;50.856;6.076;2022-10-18T01:32:48;15.40;99.90
37594;DHT22;23441;50.856;6.076;2022-10-18T01:35:18;15.40;99.90
37594;DHT22;23441;50.856;6.076;2022-10-18T01:37:47;15.40;99.90
37594;DHT22;23441;50.856;6.076;2022-10-18T01:40:17;15.40;99.90
37594;DHT22;23441;50.856;6.076;2022-10-18T01:42:45;15.40;99.90
37594;DHT22;23441;50.856;6.076;2022-10-18T01:45:14;15.40;99.90
37594;DHT22;23441;50.856;6.076;2022-10-18T01:47:42;15.40;99.90
37594;DHT22;23441;50.856;6.076;2022-10-18T01:50:08;15.40;99.90
37594;DHT22;23441;50.856;6.076;2022-10-18T01:52:34;15.40;99.90
37594;DHT22;23441;50.856;6.076;2022-10-18T01:55:02;15.40;99.90
37594;DHT22;23441;50.856;6.076;2022-10-18T02:00:16;15.40;99.90
37594;DHT22;23441;50.856;6.076;2022-10-18T02:05:36;15.30;99.90
37594;DHT22;23441;50.856;6.076;2022-10-18T02:11:06;15.30;99.90
37594;DHT22;23441;50.856;6.076;2022-10-18T02:13:57;15.30;99.90
37594;DHT22;23441;50.856;6.076;2022-10-18T02:16:25;15.20;99.90
37594;DHT22;23441;50.856;6.076;2022-10-18T02:19:04;15.20;99.90
37594;DHT22;23441;50.856;6.076;2022-10-18T02:21:31;15.20;99.90
37594;DHT22;23441;50.856;6.076;2022-10-18T02:23:58;15.20;99.90
37594;DHT22;23441;50.856;6.076;2022-10-18T02:26:25;15.20;99.90
37594;DHT22;23441;50.856;6.076;2022-10-18T02:28:51;15.20;99.90
37594;DHT22;23441;50.856;6.076;2022-10-18T02:31:30;15.20;99.90
37594;DHT22;23441;50.856;6.076;2022-10-18T02:36:46;15.20;99.90
37594;DHT22;23441;50.856;6.076;2022-10-18T02:39:18;15.10;99.90
37594;DHT22;23441;50.856;6.076;2022-10-18T02:41:45;15.10;99.90
37594;DHT22;23441;50.856;6.076;2022-10-18T02:44:11;15.20;99.90
37594;DHT22;23441;50.856;6.076;2022-10-18T02:46:38;15.10;99.90
37594;DHT22;23441;50.856;6.076;2022-10-18T02:49:04;15.10;99.90
37594;DHT22;23441;50.856;6.076;2022-10-18T02:51:30;15.10;99.90
37594;DHT22;23441;50.856;6.076;2022-10-18T02:53:56;15.20;99.90
37594;DHT22;23441;50.856;6.076;2022-10-18T02:56:21;15.10;99.90
37594;DHT22;23441;50.856;6.076;2022-10-18T02:58:47;15.10;99.90
37594;DHT22;23441;50.856;6.076;2022-10-18T03:01:13;15.10;99.90
37594;DHT22;23441;50.856;6.076;2022-10-18T03:03:39;15.10;99.90
37594;DHT22;23441;50.856;6.076;2022-10-18T03:06:04;15.10;99.90
37594;DHT22;23441;50.856;6.076;2022-10-18T03:08:30;15.00;99.90
37594;DHT22;23441;50.856;6.076;2022-10-18T03:10:56;15.00;99.90
37594;DHT22;23441;50.856;6.076;2022-10-18T03:13:21;15.00;99.90
37594;DHT22;23441;50.856;6.076;2022-10-18T03:15:48;15.10;99.90
37594;DHT22;23441;50.856;6.076;2022-10-18T03:18:14;15.00;99.90
37594;DHT22;23441;50.856;6.076;2022-10-18T03:20:40;15.00;99.90
37594;DHT22;23441;50.856;6.076;2022-10-18T03:23:05;15.00;99.90
37594;DHT22;23441;50.856;6.076;2022-10-18T03:25:32;15.00;99.90
37594;DHT22;23441;50.856;6.076;2022-10-18T03:27:58;15.00;99.90
37594;DHT22;23441;50.856;6.076;2022-10-18T03:30:24;15.00;99.90
37594;DHT22;23441;50.856;6.076;2022-10-18T03:32:49;15.00;99.90
37594;DHT22;23441;50.856;6.076;2022-10-18T03:35:15;15.00;99.90
37594;DHT22;23441;50.856;6.076;2022-10-18T03:37:41;15.00;99.90
37594;DHT22;23441;50.856;6.076;2022-10-18T03:40:07;15.10;99.90
37594;DHT22;23441;50.856;6.076;2022-10-18T03:42:33;15.10;99.90
37594;DHT22;23441;50.856;6.076;2022-10-18T03:44:59;15.10;99.90
37594;DHT22;23441;50.856;6.076;2022-10-18T03:47:25;15.10;99.90
37594;DHT22;23441;50.856;6.076;2022-10-18T03:49:50;15.20;99.90
37594;DHT22;23441;50.856;6.076;2022-10-18T03:52:16;15.20;99.90
37594;DHT22;23441;50.856;6.076;2022-10-18T03:54:42;15.20;99.90
37594;DHT22;23441;50.856;6.076;2022-10-18T03:57:07;15.20;99.90
37594;DHT22;23441;50.856;6.076;2022-10-18T03:59:33;15.20;99.90
37594;DHT22;23441;50.856;6.076;2022-10-18T04:01:59;15.30;99.90
37594;DHT22;23441;50.856;6.076;2022-10-18T04:04:25;15.30;99.90
37594;DHT22;23441;50.856;6.076;2022-10-18T04:06:50;15.30;99.90
37594;DHT22;23441;50.856;6.076;2022-10-18T04:09:16;15.30;99.90
37594;DHT22;23441;50.856;6.076;2022-10-18T04:11:42;15.30;99.90
37594;DHT22;23441;50.856;6.076;2022-10-18T04:14:08;15.30;99.90
37594;DHT22;23441;50.856;6.076;2022-10-18T04:16:33;15.30;99.90
37594;DHT22;23441;50.856;6.076;2022-10-18T04:18:59;15.20;99.90
37594;DHT22;23441;50.856;6.076;2022-10-18T04:21:25;15.30;99.90
37594;DHT22;23441;50.856;6.076;2022-10-18T04:23:50;15.30;99.90
37594;DHT22;23441;50.856;6.076;2022-10-18T04:26:16;15.20;99.90
37594;DHT22;23441;50.856;6.076;2022-10-18T04:28:42;15.20;99.90
37594;DHT22;23441;50.856;6.076;2022-10-18T04:31:10;15.20;99.90
37594;DHT22;23441;50.856;6.076;2022-10-18T04:33:36;15.20;99.90
37594;DHT22;23441;50.856;6.076;2022-10-18T04:36:02;15.30;99.90
37594;DHT22;23441;50.856;6.076;2022-10-18T04:38:28;15.30;99.90
37594;DHT22;23441;50.856;6.076;2022-10-18T04:40:54;15.30;99.90
37594;DHT22;23441;50.856;6.076;2022-10-18T04:43:20;15.20;99.90
37594;DHT22;23441;50.856;6.076;2022-10-18T04:45:46;15.10;99.90
37594;DHT22;23441;50.856;6.076;2022-10-18T04:48:13;15.10;99.90
37594;DHT22;23441;50.856;6.076;2022-10-18T04:50:39;15.20;99.90
37594;DHT22;23441;50.856;6.076;2022-10-18T04:53:05;15.20;99.90
37594;DHT22;23441;50.856;6.076;2022-10-18T04:55:31;15.20;99.90
37594;DHT22;23441;50.856;6.076;2022-10-18T04:57:57;15.20;99.90
37594;DHT22;23441;50.856;6.076;2022-10-18T05:00:22;15.20;99.90
37594;DHT22;23441;50.856;6.076;2022-10-18T05:02:48;15.30;99.90
37594;DHT22;23441;50.856;6.076;2022-10-18T05:05:14;15.20;99.90
37594;DHT22;23441;50.856;6.076;2022-10-18T05:07:40;15.20;99.90
37594;DHT22;23441;50.856;6.076;2022-10-18T05:10:06;15.20;99.90
37594;DHT22;23441;50.856;6.076;2022-10-18T05:12:32;15.20;99.90
37594;DHT22;23441;50.856;6.076;2022-10-18T05:14:57;15.20;99.90
37594;DHT22;23441;50.856;6.076;2022-10-18T05:17:23;15.20;99.90
37594;DHT22;23441;50.856;6.076;2022-10-18T05:19:49;15.20;99.90
37594;DHT22;23441;50.856;6.076;2022-10-18T05:22:14;15.20;99.90
37594;DHT22;23441;50.856;6.076;2022-10-18T05:24:40;15.20;99.90
37594;DHT22;23441;50.856;6.076;2022-10-18T05:27:06;15.10;99.90
37594;DHT22;23441;50.856;6.076;2022-10-18T05:29:31;15.20;99.90
37594;DHT22;23441;50.856;6.076;2022-10-18T05:31:57;15.20;99.90
37594;DHT22;23441;50.856;6.076;2022-10-18T05:34:23;15.10;99.90
37594;DHT22;23441;50.856;6.076;2022-10-18T05:36:49;15.10;99.90
37594;DHT22;23441;50.856;6.076;2022-10-18T05:39:14;15.10;99.90
37594;DHT22;23441;50.856;6.076;2022-10-18T05:41:40;15.20;99.90
37594;DHT22;23441;50.856;6.076;2022-10-18T05:44:06;15.20;99.90
37594;DHT22;23441;50.856;6.076;2022-10-18T05:46:32;15.20;99.90
37594;DHT22;23441;50.856;6.076;2022-10-18T05:48:58;15.20;99.90
37594;DHT22;23441;50.856;6.076;2022-10-18T05:51:24;15.20;99.90
37594;DHT22;23441;50.856;6.076;2022-10-18T05:53:50;15.20;99.90
37594;DHT22;23441;50.856;6.076;2022-10-18T05:56:15;15.10;99.90
37594;DHT22;23441;50.856;6.076;2022-10-18T05:58:42;15.20;99.90
37594;DHT22;23441;50.856;6.076;2022-10-18T06:01:08;15.10;99.90
37594;DHT22;23441;50.856;6.076;2022-10-18T06:03:34;15.20;99.90
37594;DHT22;23441;50.856;6.076;2022-10-18T06:06:02;15.20;99.90
37594;DHT22;23441;50.856;6.076;2022-10-18T06:08:28;15.20;99.90
37594;DHT22;23441;50.856;6.076;2022-10-18T06:10:54;15.20;99.90
37594;DHT22;23441;50.856;6.076;2022-10-18T06:13:20;15.20;99.90
37594;DHT22;23441;50.856;6.076;2022-10-18T06:15:45;15.20;99.90
37594;DHT22;23441;50.856;6.076;2022-10-18T06:18:11;15.20;99.90
37594;DHT22;23441;50.856;6.076;2022-10-18T06:20:37;15.20;99.90
37594;DHT22;23441;50.856;6.076;2022-10-18T06:23:03;15.20;99.90
37594;DHT22;23441;50.856;6.076;2022-10-18T06:25:28;15.20;99.90
37594;DHT22;23441;50.856;6.076;2022-10-18T06:27:54;15.20;99.90
37594;DHT22;23441;50.856;6.076;2022-10-18T06:30:20;15.20;99.90
37594;DHT22;23441;50.856;6.076;2022-10-18T06:32:45;15.20;99.90
37594;DHT22;23441;50.856;6.076;2022-10-18T06:35:11;15.20;99.90
37594;DHT22;23441;50.856;6.076;2022-10-18T06:37:37;15.20;99.90
37594;DHT22;23441;50.856;6.076;2022-10-18T06:40:04;15.30;99.90
37594;DHT22;23441;50.856;6.076;2022-10-18T06:42:30;15.20;99.90
37594;DHT22;23441;50.856;6.076;2022-10-18T06:44:56;15.30;99.90
37594;DHT22;23441;50.856;6.076;2022-10-18T06:47:22;15.30;99.90
37594;DHT22;23441;50.856;6.076;2022-10-18T06:49:48;15.30;99.90
37594;DHT22;23441;50.856;6.076;2022-10-18T06:52:16;15.30;99.90
37594;DHT22;23441;50.856;6.076;2022-10-18T06:54:42;15.40;99.90
37594;DHT22;23441;50.856;6.076;2022-10-18T06:57:08;15.30;99.90
37594;DHT22;23441;50.856;6.076;2022-10-18T06:59:34;15.30;99.90
37594;DHT22;23441;50.856;6.076;2022-10-18T07:02:00;15.30;99.90
37594;DHT22;23441;50.856;6.076;2022-10-18T07:04:28;15.30;99.90
37594;DHT22;23441;50.856;6.076;2022-10-18T07:06:57;15.30;99.90
37594;DHT22;23441;50.856;6.076;2022-10-18T07:09:23;15.30;99.90
37594;DHT22;23441;50.856;6.076;2022-10-18T07:11:48;15.40;99.90
37594;DHT22;23441;50.856;6.076;2022-10-18T07:14:14;15.40;99.90
37594;DHT22;23441;50.856;6.076;2022-10-18T07:16:40;15.40;99.90
37594;DHT22;23441;50.856;6.076;2022-10-18T07:19:05;15.50;99.90
37594;DHT22;23441;50.856;6.076;2022-10-18T07:21:31;15.50;99.90
37594;DHT22;23441;50.856;6.076;2022-10-18T07:23:57;15.60;99.90
37594;DHT22;23441;50.856;6.076;2022-10-18T07:26:32;15.60;99.90
37594;DHT22;23441;50.856;6.076;2022-10-18T07:29:03;15.70;99.90
37594;DHT22;23441;50.856;6.076;2022-10-18T07:31:29;15.70;99.90
37594;DHT22;23441;50.856;6.076;2022-10-18T07:33:55;15.70;99.90
37594;DHT22;23441;50.856;6.076;2022-10-18T07:36:21;15.70;99.90
37594;DHT22;23441;50.856;6.076;2022-10-18T07:38:47;15.70;99.90
37594;DHT22;23441;50.856;6.076;2022-10-18T07:41:14;15.70;99.90
37594;DHT22;23441;50.856;6.076;2022-10-18T07:43:50;15.60;99.90
37594;DHT22;23441;50.856;6.076;2022-10-18T07:46:18;15.70;99.90
37594;DHT22;23441;50.856;6.076;2022-10-18T07:48:43;15.70;99.90
37594;DHT22;23441;50.856;6.076;2022-10-18T07:51:10;15.70;99.90
37594;DHT22;23441;50.856;6.076;2022-10-18T07:53:36;15.70;99.90
37594;DHT22;23441;50.856;6.076;2022-10-18T07:56:04;15.70;99.90
37594;DHT22;23441;50.856;6.076;2022-10-18T07:58:31;15.70;99.90
37594;DHT22;23441;50.856;6.076;2022-10-18T08:01:01;15.60;99.90
37594;DHT22;23441;50.856;6.076;2022-10-18T08:03:28;15.70;99.90
37594;DHT22;23441;50.856;6.076;2022-10-18T08:05:54;15.80;99.90
37594;DHT22;23441;50.856;6.076;2022-10-18T08:08:21;15.80;99.90
37594;DHT22;23441;50.856;6.076;2022-10-18T08:10:47;15.80;99.90
37594;DHT22;23441;50.856;6.076;2022-10-18T08:13:14;15.80;99.90
37594;DHT22;23441;50.856;6.076;2022-10-18T08:15:40;15.90;99.90
37594;DHT22;23441;50.856;6.076;2022-10-18T08:18:05;15.90;99.90
37594;DHT22;23441;50.856;6.076;2022-10-18T08:20:31;15.90;99.90
37594;DHT22;23441;50.856;6.076;2022-10-18T08:22:58;15.90;99.90
37594;DHT22;23441;50.856;6.076;2022-10-18T08:25:24;15.80;99.90
37594;DHT22;23441;50.856;6.076;2022-10-18T08:27:50;15.80;99.90
37594;DHT22;23441;50.856;6.076;2022-10-18T08:30:16;15.80;99.90
37594;DHT22;23441;50.856;6.076;2022-10-18T08:32:42;15.70;99.90
37594;DHT22;23441;50.856;6.076;2022-10-18T08:35:07;15.80;99.90
37594;DHT22;23441;50.856;6.076;2022-10-18T08:37:33;15.80;99.90
37594;DHT22;23441;50.856;6.076;2022-10-18T08:39:59;15.70;99.90
37594;DHT22;23441;50.856;6.076;2022-10-18T08:45:19;15.80;99.90
37594;DHT22;23441;50.856;6.076;2022-10-18T08:47:47;15.90;99.90
37594;DHT22;23441;50.856;6.076;2022-10-18T08:50:24;15.90;99.90
37594;DHT22;23441;50.856;6.076;2022-10-18T08:52:52;15.90;99.90
37594;DHT22;23441;50.856;6.076;2022-10-18T08:55:47;16.00;99.90
37594;DHT22;23441;50.856;6.076;2022-10-18T08:58:24;16.10;99.90
37594;DHT22;23441;50.856;6.076;2022-10-18T09:09:53;16.20;99.90
37594;DHT22;23441;50.856;6.076;2022-10-18T09:12:41;16.30;99.90
37594;DHT22;23441;50.856;6.076;2022-10-18T09:15:32;16.30;99.90
37594;DHT22;23441;50.856;6.076;2022-10-18T09:18:30;16.40;99.90
37594;DHT22;23441;50.856;6.076;2022-10-18T09:20:59;16.40;99.90
37594;DHT22;23441;50.856;6.076;2022-10-18T09:23:43;16.50;99.90
37594;DHT22;23441;50.856;6.076;2022-10-18T09:28:56;16.60;99.90
37594;DHT22;23441;50.856;6.076;2022-10-18T09:34:50;16.90;99.90
37594;DHT22;23441;50.856;6.076;2022-10-18T09:37:17;16.90;99.90
37594;DHT22;23441;50.856;6.076;2022-10-18T09:39:44;17.00;99.90
37594;DHT22;23441;50.856;6.076;2022-10-18T09:42:24;17.10;99.90
37594;DHT22;23441;50.856;6.076;2022-10-18T09:45:00;17.10;99.90
37594;DHT22;23441;50.856;6.076;2022-10-18T09:47:33;17.00;99.90
37594;DHT22;23441;50.856;6.076;2022-10-18T09:50:26;17.20;99.90
37594;DHT22;23441;50.856;6.076;2022-10-18T09:53:04;17.20;99.90
37594;DHT22;23441;50.856;6.076;2022-10-18T09:55:35;17.20;99.90
37594;DHT22;23441;50.856;6.076;2022-10-18T09:58:05;17.30;99.90
37594;DHT22;23441;50.856;6.076;2022-10-18T10:00:36;17.30;99.90
37594;DHT22;23441;50.856;6.076;2022-10-18T10:03:10;17.30;99.90
37594;DHT22;23441;50.856;6.076;2022-10-18T10:05:41;17.30;99.90
37594;DHT22;23441;50.856;6.076;2022-10-18T10:08:06;17.30;99.90
37594;DHT22;23441;50.856;6.076;2022-10-18T10:10:33;17.50;99.90
37594;DHT22;23441;50.856;6.076;2022-10-18T10:13:17;17.50;99.90
37594;DHT22;23441;50.856;6.076;2022-10-18T10:15:59;17.50;99.90
37594;DHT22;23441;50.856;6.076;2022-10-18T10:18:28;17.60;99.90
37594;DHT22;23441;50.856;6.076;2022-10-18T10:20:57;17.50;99.90
37594;DHT22;23441;50.856;6.076;2022-10-18T10:23:57;17.50;99.90
37594;DHT22;23441;50.856;6.076;2022-10-18T10:26:24;17.50;99.90
37594;DHT22;23441;50.856;6.076;2022-10-18T10:28:52;17.50;99.90
37594;DHT22;23441;50.856;6.076;2022-10-18T10:31:27;17.50;99.90
37594;DHT22;23441;50.856;6.076;2022-10-18T10:34:19;17.60;99.90
37594;DHT22;23441;50.856;6.076;2022-10-18T10:36:50;17.70;99.90
37594;DHT22;23441;50.856;6.076;2022-10-18T10:39:17;17.70;99.90
37594;DHT22;23441;50.856;6.076;2022-10-18T10:42:02;17.70;99.90
37594;DHT22;23441;50.856;6.076;2022-10-18T10:44:30;17.80;99.90
37594;DHT22;23441;50.856;6.076;2022-10-18T10:46:57;17.90;99.90
37594;DHT22;23441;50.856;6.076;2022-10-18T10:49:28;17.70;99.90
37594;DHT22;23441;50.856;6.076;2022-10-18T10:52:04;17.50;99.90
37594;DHT22;23441;50.856;6.076;2022-10-18T10:54:43;17.30;99.90
37594;DHT22;23441;50.856;6.076;2022-10-18T10:59:43;17.10;99.90
37594;DHT22;23441;50.856;6.076;2022-10-18T11:04:40;17.00;99.90
37594;DHT22;23441;50.856;6.076;2022-10-18T11:12:24;17.30;99.90
37594;DHT22;23441;50.856;6.076;2022-10-18T11:15:01;17.70;99.90
37594;DHT22;23441;50.856;6.076;2022-10-18T11:17:42;17.70;99.90
37594;DHT22;23441;50.856;6.076;2022-10-18T11:20:21;17.60;99.90
37594;DHT22;23441;50.856;6.076;2022-10-18T11:25:22;17.40;99.90
37594;DHT22;23441;50.856;6.076;2022-10-18T11:28:23;17.40;99.90
37594;DHT22;23441;50.856;6.076;2022-10-18T11:37:02;17.40;99.90
37594;DHT22;23441;50.856;6.076;2022-10-18T12:05:04;17.70;99.90
37594;DHT22;23441;50.856;6.076;2022-10-18T12:07:35;17.50;99.90
37594;DHT22;23441;50.856;6.076;2022-10-18T12:10:03;17.70;99.90
37594;DHT22;23441;50.856;6.076;2022-10-18T12:12:37;17.80;99.90
37594;DHT22;23441;50.856;6.076;2022-10-18T12:15:20;18.00;99.90
37594;DHT22;23441;50.856;6.076;2022-10-18T12:17:50;18.10;99.90
37594;DHT22;23441;50.856;6.076;2022-10-18T12:20:28;18.30;99.90
37594;DHT22;23441;50.856;6.076;2022-10-18T12:25:42;18.70;99.90
37594;DHT22;23441;50.856;6.076;2022-10-18T12:28:22;18.80;99.90
37594;DHT22;23441;50.856;6.076;2022-10-18T12:31:16;18.90;99.90
37594;DHT22;23441;50.856;6.076;2022-10-18T12:33:47;19.10;99.90
37594;DHT22;23441;50.856;6.076;2022-10-18T12:39:04;18.90;99.90
37594;DHT22;23441;50.856;6.076;2022-10-18T12:41:35;18.90;99.90
37594;DHT22;23441;50.856;6.076;2022-10-18T12:44:18;18.70;99.90
37594;DHT22;23441;50.856;6.076;2022-10-18T12:46:55;18.80;99.90
37594;DHT22;23441;50.856;6.076;2022-10-18T12:49:58;19.00;99.90
37594;DHT22;23441;50.856;6.076;2022-10-18T12:52:26;19.30;99.90
37594;DHT22;23441;50.856;6.076;2022-10-18T12:58:00;19.60;99.90
37594;DHT22;23441;50.856;6.076;2022-10-18T13:27:36;19.10;99.90
37594;DHT22;23441;50.856;6.076;2022-10-18T13:35:49;18.90;99.90
37594;DHT22;23441;50.856;6.076;2022-10-18T13:41:22;18.90;99.90
37594;DHT22;23441;50.856;6.076;2022-10-18T13:43:58;18.80;99.90
37594;DHT22;23441;50.856;6.076;2022-10-18T14:03:34;18.40;99.90
37594;DHT22;23441;50.856;6.076;2022-10-18T14:06:15;18.40;99.90
37594;DHT22;23441;50.856;6.076;2022-10-18T14:09:11;18.30;99.90
37594;DHT22;23441;50.856;6.076;2022-10-18T14:11:46;18.30;99.90
37594;DHT22;23441;50.856;6.076;2022-10-18T14:14:42;18.30;99.90
37594;DHT22;23441;50.856;6.076;2022-10-18T14:17:28;18.10;99.90
37594;DHT22;23441;50.856;6.076;2022-10-18T14:20:01;18.00;99.90
37594;DHT22;23441;50.856;6.076;2022-10-18T14:22:40;17.90;99.90
37594;DHT22;23441;50.856;6.076;2022-10-18T14:30:34;17.60;99.90
37594;DHT22;23441;50.856;6.076;2022-10-18T14:33:01;17.70;99.90
37594;DHT22;23441;50.856;6.076;2022-10-18T14:35:31;17.60;99.90
37594;DHT22;23441;50.856;6.076;2022-10-18T14:38:00;17.50;99.90
37594;DHT22;23441;50.856;6.076;2022-10-18T14:43:12;17.40;99.90
37594;DHT22;23441;50.856;6.076;2022-10-18T14:45:39;17.30;99.90
37594;DHT22;23441;50.856;6.076;2022-10-18T14:48:10;17.20;99.90
37594;DHT22;23441;50.856;6.076;2022-10-18T14:50:37;17.10;99.90
37594;DHT22;23441;50.856;6.076;2022-10-18T14:53:05;17.00;99.90
37594;DHT22;23441;50.856;6.076;2022-10-18T14:55:31;16.90;99.90
37594;DHT22;23441;50.856;6.076;2022-10-18T14:57:58;16.80;99.90
37594;DHT22;23441;50.856;6.076;2022-10-18T15:00:31;16.80;99.90
37594;DHT22;23441;50.856;6.076;2022-10-18T15:02:58;16.80;99.90
37594;DHT22;23441;50.856;6.076;2022-10-18T15:05:25;16.70;99.90
37594;DHT22;23441;50.856;6.076;2022-10-18T15:07:52;16.70;99.90
37594;DHT22;23441;50.856;6.076;2022-10-18T15:10:21;16.70;99.90
37594;DHT22;23441;50.856;6.076;2022-10-18T15:12:48;16.70;99.90
37594;DHT22;23441;50.856;6.076;2022-10-18T15:15:21;16.70;99.90
37594;DHT22;23441;50.856;6.076;2022-10-18T15:17:48;16.60;99.90
37594;DHT22;23441;50.856;6.076;2022-10-18T15:22:45;16.50;99.90
37594;DHT22;23441;50.856;6.076;2022-10-18T15:25:25;16.60;99.90
37594;DHT22;23441;50.856;6.076;2022-10-18T15:27:54;16.50;99.90
37594;DHT22;23441;50.856;6.076;2022-10-18T15:30:38;16.50;99.90
37594;DHT22;23441;50.856;6.076;2022-10-18T15:33:07;16.50;99.90
37594;DHT22;23441;50.856;6.076;2022-10-18T15:35:37;16.50;99.90
37594;DHT22;23441;50.856;6.076;2022-10-18T15:40:40;16.30;99.90
37594;DHT22;23441;50.856;6.076;2022-10-18T15:45:50;16.30;99.90
37594;DHT22;23441;50.856;6.076;2022-10-18T15:48:23;16.20;99.90
37594;DHT22;23441;50.856;6.076;2022-10-18T15:50:51;16.10;99.90
37594;DHT22;23441;50.856;6.076;2022-10-18T15:56:04;16.00;99.90
37594;DHT22;23441;50.856;6.076;2022-10-18T15:58:46;15.80;99.90
37594;DHT22;23441;50.856;6.076;2022-10-18T16:01:16;15.70;99.90
37594;DHT22;23441;50.856;6.076;2022-10-18T16:03:43;15.70;99.90
37594;DHT22;23441;50.856;6.076;2022-10-18T16:06:10;15.60;99.90
37594;DHT22;23441;50.856;6.076;2022-10-18T16:08:42;15.60;99.90
37594;DHT22;23441;50.856;6.076;2022-10-18T16:13:39;15.50;99.90
37594;DHT22;23441;50.856;6.076;2022-10-18T16:16:05;15.50;99.90
37594;DHT22;23441;50.856;6.076;2022-10-18T16:18:32;15.40;99.90
37594;DHT22;23441;50.856;6.076;2022-10-18T16:20:58;15.40;99.90
37594;DHT22;23441;50.856;6.076;2022-10-18T16:23:26;15.40;99.90
37594;DHT22;23441;50.856;6.076;2022-10-18T16:25:55;15.20;99.90
37594;DHT22;23441;50.856;6.076;2022-10-18T16:28:24;15.10;99.90
37594;DHT22;23441;50.856;6.076;2022-10-18T16:30:59;15.00;99.90
37594;DHT22;23441;50.856;6.076;2022-10-18T16:33:26;14.90;99.90
37594;DHT22;23441;50.856;6.076;2022-10-18T16:35:52;14.90;99.90
37594;DHT22;23441;50.856;6.076;2022-10-18T16:38:33;14.90;99.90
37594;DHT22;23441;50.856;6.076;2022-10-18T16:41:00;14.80;99.90
37594;DHT22;23441;50.856;6.076;2022-10-18T16:43:26;14.80;99.90
37594;DHT22;23441;50.856;6.076;2022-10-18T16:45:52;14.70;99.90
37594;DHT22;23441;50.856;6.076;2022-10-18T16:48:20;14.60;99.90
37594;DHT22;23441;50.856;6.076;2022-10-18T16:50:46;14.50;99.90
37594;DHT22;23441;50.856;6.076;2022-10-18T16:53:13;14.40;99.90
37594;DHT22;23441;50.856;6.076;2022-10-18T16:55:40;14.40;99.90
37594;DHT22;23441;50.856;6.076;2022-10-18T16:58:06;14.30;99.90
37594;DHT22;23441;50.856;6.076;2022-10-18T17:00:32;14.30;99.90
37594;DHT22;23441;50.856;6.076;2022-10-18T17:02:58;14.20;99.90
37594;DHT22;23441;50.856;6.076;2022-10-18T17:05:24;14.10;99.90
37594;DHT22;23441;50.856;6.076;2022-10-18T17:07:50;14.00;99.90
37594;DHT22;23441;50.856;6.076;2022-10-18T17:10:18;13.90;99.90
37594;DHT22;23441;50.856;6.076;2022-10-18T17:12:44;13.90;99.90
37594;DHT22;23441;50.856;6.076;2022-10-18T17:15:10;13.80;99.90
37594;DHT22;23441;50.856;6.076;2022-10-18T17:17:37;13.70;99.90
37594;DHT22;23441;50.856;6.076;2022-10-18T17:20:05;13.70;99.90
37594;DHT22;23441;50.856;6.076;2022-10-18T17:22:31;13.60;99.90
37594;DHT22;23441;50.856;6.076;2022-10-18T17:24:57;13.50;99.90
37594;DHT22;23441;50.856;6.076;2022-10-18T17:27:23;13.40;99.90
37594;DHT22;23441;50.856;6.076;2022-10-18T17:29:49;13.40;99.90
37594;DHT22;23441;50.856;6.076;2022-10-18T17:32:14;13.30;99.90
37594;DHT22;23441;50.856;6.076;2022-10-18T17:34:40;13.20;99.90
37594;DHT22;23441;50.856;6.076;2022-10-18T17:37:06;13.10;99.90
37594;DHT22;23441;50.856;6.076;2022-10-18T17:39:32;13.00;99.90
37594;DHT22;23441;50.856;6.076;2022-10-18T17:41:58;13.00;99.90
37594;DHT22;23441;50.856;6.076;2022-10-18T17:44:24;13.00;99.90
37594;DHT22;23441;50.856;6.076;2022-10-18T17:46:50;12.90;99.90
37594;DHT22;23441;50.856;6.076;2022-10-18T17:49:16;12.80;99.90
37594;DHT22;23441;50.856;6.076;2022-10-18T17:51:42;12.80;99.90
37594;DHT22;23441;50.856;6.076;2022-10-18T17:54:10;12.70;99.90
37594;DHT22;23441;50.856;6.076;2022-10-18T17:56:38;12.70;99.90
37594;DHT22;23441;50.856;6.076;2022-10-18T17:59:03;12.60;99.90
37594;DHT22;23441;50.856;6.076;2022-10-18T18:01:29;12.50;99.90
37594;DHT22;23441;50.856;6.076;2022-10-18T18:03:57;12.50;99.90
37594;DHT22;23441;50.856;6.076;2022-10-18T18:06:32;12.50;99.90
37594;DHT22;23441;50.856;6.076;2022-10-18T18:09:04;12.40;99.90
37594;DHT22;23441;50.856;6.076;2022-10-18T18:11:32;12.40;99.90
37594;DHT22;23441;50.856;6.076;2022-10-18T18:13:58;12.30;99.90
37594;DHT22;23441;50.856;6.076;2022-10-18T18:16:26;12.30;99.90
37594;DHT22;23441;50.856;6.076;2022-10-18T18:18:54;12.30;99.90
37594;DHT22;23441;50.856;6.076;2022-10-18T18:21:21;12.30;99.90
37594;DHT22;23441;50.856;6.076;2022-10-18T18:23:48;12.20;99.90
37594;DHT22;23441;50.856;6.076;2022-10-18T18:26:14;12.20;99.90
37594;DHT22;23441;50.856;6.076;2022-10-18T18:28:40;12.10;99.90
37594;DHT22;23441;50.856;6.076;2022-10-18T18:31:11;12.10;99.90
37594;DHT22;23441;50.856;6.076;2022-10-18T18:33:37;12.10;99.90